createdAt,value
2023-01-27T00:01:16.866Z,101272.20
2023-01-27T00:03:45.405Z,101273.00
2023-01-27T00:06:13.320Z,101269.60
2023-01-27T00:08:41.298Z,101269.40
2023-01-27T00:11:27.867Z,101268.00
2023-01-27T00:13:55.762Z,101270.60
2023-01-27T00:16:23.697Z,101269.60
2023-01-27T00:18:51.616Z,101266.00
2023-01-27T00:21:38.378Z,101271.40
2023-01-27T00:24:25.552Z,101275.20
2023-01-27T00:26:53.400Z,101275.20
2023-01-27T00:29:21.275Z,101277.00
2023-01-27T00:32:08.210Z,101283.20
2023-01-27T00:34:36.023Z,101284.40
2023-01-27T00:37:03.830Z,101289.60
2023-01-27T00:39:31.640Z,101292.20
2023-01-27T00:41:59.563Z,101289.20
2023-01-27T00:44:27.533Z,101287.20
2023-01-27T00:46:55.429Z,101294.40
2023-01-27T00:49:23.321Z,101296.00
2023-01-27T00:51:51.455Z,101291.80
2023-01-27T00:54:19.463Z,101291.80
2023-01-27T00:56:47.382Z,101294.00
2023-01-27T00:59:15.314Z,101297.60
2023-01-27T01:01:43.183Z,101295.60
2023-01-27T01:04:11.027Z,101295.20
2023-01-27T01:06:38.860Z,101303.20
2023-01-27T01:09:06.729Z,101303.00
2023-01-27T01:11:34.560Z,101306.00
2023-01-27T01:14:02.601Z,101302.00
2023-01-27T01:16:30.430Z,101307.40
2023-01-27T01:18:58.577Z,101305.00
2023-01-27T01:21:26.514Z,101304.80
2023-01-27T01:23:54.444Z,101312.40
2023-01-27T01:26:22.297Z,101310.20
2023-01-27T01:28:50.489Z,101313.20
2023-01-27T01:31:20.869Z,101315.40
2023-01-27T01:33:49.545Z,101316.80
2023-01-27T01:36:22.006Z,101318.00
2023-01-27T01:38:55.611Z,101321.20
2023-01-27T01:41:24.727Z,101320.00
2023-01-27T01:43:53.908Z,101323.80
2023-01-27T01:46:21.938Z,101322.60
2023-01-27T01:48:54.870Z,101323.60
2023-01-27T01:51:34.220Z,101320.40
2023-01-27T01:54:08.419Z,101319.40
2023-01-27T01:56:52.544Z,101314.20
2023-01-27T01:59:38.165Z,101319.60
2023-01-27T02:02:12.985Z,101319.20
2023-01-27T02:04:50.284Z,101326.00
2023-01-27T02:07:46.056Z,101324.20
2023-01-27T02:10:14.161Z,101319.00
2023-01-27T02:12:42.298Z,101325.60
2023-01-27T02:15:12.195Z,101325.40
2023-01-27T02:17:41.029Z,101329.00
2023-01-27T02:20:40.982Z,101326.20
2023-01-27T02:23:14.564Z,101325.00
2023-01-27T02:25:56.802Z,101327.80
2023-01-27T02:28:29.774Z,101333.20
2023-01-27T02:30:58.883Z,101335.60
2023-01-27T02:33:27.552Z,101340.40
2023-01-27T02:36:24.367Z,101344.00
2023-01-27T02:38:56.879Z,101343.20
2023-01-27T02:41:48.440Z,101345.40
2023-01-27T02:44:16.405Z,101348.20
2023-01-27T02:46:44.372Z,101359.20
2023-01-27T02:49:12.717Z,101362.00
2023-01-27T02:51:40.952Z,101355.00
2023-01-27T02:54:09.119Z,101352.80
2023-01-27T02:56:36.931Z,101348.20
2023-01-27T02:59:05.039Z,101359.60
2023-01-27T03:01:32.990Z,101359.60
2023-01-27T03:04:00.890Z,101368.20
2023-01-27T03:06:28.794Z,101366.00
2023-01-27T03:08:56.748Z,101369.20
2023-01-27T03:11:43.379Z,101377.40
2023-01-27T03:14:11.419Z,101380.80
2023-01-27T03:16:58.415Z,101383.60
2023-01-27T03:19:29.326Z,101384.00
2023-01-27T03:21:57.130Z,101383.00
2023-01-27T03:24:25.085Z,101381.20
2023-01-27T03:26:52.962Z,101384.20
2023-01-27T03:29:39.574Z,101386.20
2023-01-27T03:32:07.412Z,101387.40
2023-01-27T03:34:35.257Z,101385.20
2023-01-27T03:37:21.919Z,101386.80
2023-01-27T03:40:08.551Z,101393.00
2023-01-27T03:42:55.073Z,101391.40
2023-01-27T03:45:41.379Z,101393.80
2023-01-27T03:48:09.172Z,101397.20
2023-01-27T03:50:43.312Z,101397.80
2023-01-27T03:53:11.567Z,101398.60
2023-01-27T03:55:39.462Z,101396.00
2023-01-27T03:58:28.373Z,101399.00
2023-01-27T04:01:00.485Z,101403.20
2023-01-27T04:03:54.003Z,101405.60
2023-01-27T04:06:47.521Z,101407.00
2023-01-27T04:09:25.554Z,101403.60
2023-01-27T04:11:55.295Z,101409.20
2023-01-27T04:14:26.084Z,101408.00
2023-01-27T04:16:58.287Z,101416.20
2023-01-27T04:19:27.140Z,101419.40
2023-01-27T04:21:56.503Z,101421.20
2023-01-27T04:24:25.135Z,101430.40
2023-01-27T04:27:04.304Z,101429.40
2023-01-27T04:29:36.265Z,101428.60
2023-01-27T04:32:09.657Z,101429.80
2023-01-27T04:35:11.940Z,101431.40
2023-01-27T04:37:40.094Z,101436.80
2023-01-27T04:40:09.557Z,101438.00
2023-01-27T04:42:37.415Z,101434.40
2023-01-27T04:45:06.120Z,101436.20
2023-01-27T04:47:33.958Z,101438.20
2023-01-27T04:50:01.872Z,101443.00
2023-01-27T04:52:29.775Z,101447.60
2023-01-27T04:54:57.583Z,101441.80
2023-01-27T04:57:27.170Z,101439.20
2023-01-27T04:59:55.012Z,101451.00
2023-01-27T05:02:22.878Z,101452.20
2023-01-27T05:04:50.961Z,101459.60
2023-01-27T05:07:18.806Z,101467.00
2023-01-27T05:09:46.950Z,101465.40
2023-01-27T05:12:14.965Z,101472.20
2023-01-27T05:14:42.723Z,101471.60
2023-01-27T05:17:10.542Z,101467.60
2023-01-27T05:19:38.443Z,101476.00
2023-01-27T05:22:06.823Z,101487.80
2023-01-27T05:24:34.748Z,101488.80
2023-01-27T05:27:03.260Z,101485.40
2023-01-27T05:29:33.889Z,101489.80
2023-01-27T05:32:02.082Z,101491.20
2023-01-27T05:34:30.037Z,101488.80
2023-01-27T05:36:57.892Z,101489.80
2023-01-27T05:39:25.792Z,101504.80
2023-01-27T05:41:54.429Z,101504.80
2023-01-27T05:44:22.293Z,101515.00
2023-01-27T05:46:50.665Z,101511.80
2023-01-27T05:49:18.705Z,101512.40
2023-01-27T05:51:46.649Z,101525.00
2023-01-27T05:54:14.528Z,101523.20
2023-01-27T05:56:42.445Z,101525.80
2023-01-27T05:59:11.699Z,101527.40
2023-01-27T06:01:39.716Z,101535.80
2023-01-27T06:04:07.665Z,101532.00
2023-01-27T06:06:35.558Z,101539.20
2023-01-27T06:09:04.154Z,101546.00
2023-01-27T06:11:31.965Z,101542.20
2023-01-27T06:13:59.952Z,101547.00
2023-01-27T06:16:28.138Z,101552.80
2023-01-27T06:18:56.008Z,101556.20
2023-01-27T06:21:23.903Z,101554.60
2023-01-27T06:23:53.695Z,101557.40
2023-01-27T06:26:21.885Z,101563.20
2023-01-27T06:28:49.992Z,101557.00
2023-01-27T06:31:21.860Z,101570.40
2023-01-27T06:33:51.830Z,101578.00
2023-01-27T06:36:22.671Z,101588.40
2023-01-27T06:38:51.588Z,101582.40
2023-01-27T06:41:19.576Z,101581.60
2023-01-27T06:43:47.640Z,101587.00
2023-01-27T06:46:15.794Z,101590.60
2023-01-27T06:48:45.530Z,101585.60
2023-01-27T06:51:13.789Z,101594.00
2023-01-27T06:53:41.627Z,101599.20
2023-01-27T06:56:09.617Z,101594.80
2023-01-27T06:58:37.547Z,101605.40
2023-01-27T07:01:07.040Z,101613.20
2023-01-27T07:03:37.695Z,101613.80
2023-01-27T07:06:06.111Z,101613.80
2023-01-27T07:08:34.085Z,101618.00
2023-01-27T07:11:05.627Z,101627.40
2023-01-27T07:13:33.707Z,101625.00
2023-01-27T07:16:01.791Z,101626.60
2023-01-27T07:18:32.050Z,101632.20
2023-01-27T07:20:59.896Z,101634.40
2023-01-27T07:23:27.808Z,101631.40
2023-01-27T07:25:55.664Z,101638.20
2023-01-27T07:28:23.659Z,101636.80
2023-01-27T07:30:51.860Z,101636.40
2023-01-27T07:33:19.933Z,101638.80
2023-01-27T07:35:50.030Z,101640.00
2023-01-27T07:38:18.296Z,101650.20
2023-01-27T07:40:46.224Z,101648.20
2023-01-27T07:43:14.086Z,101645.40
2023-01-27T07:45:42.246Z,101657.20
2023-01-27T07:48:10.238Z,101645.20
2023-01-27T07:50:41.954Z,101656.60
2023-01-27T07:53:11.493Z,101652.20
2023-01-27T07:55:39.449Z,101661.80
2023-01-27T07:58:07.626Z,101659.20
2023-01-27T08:00:36.235Z,101669.20
2023-01-27T08:03:06.284Z,101671.40
2023-01-27T08:05:35.286Z,101669.60
2023-01-27T08:08:06.018Z,101673.40
2023-01-27T08:10:34.114Z,101678.60
2023-01-27T08:13:02.013Z,101676.80
2023-01-27T08:15:29.879Z,101673.40
2023-01-27T08:17:59.445Z,101684.00
2023-01-27T08:20:28.198Z,101675.60
2023-01-27T08:22:56.728Z,101684.20
2023-01-27T08:25:25.226Z,101677.40
2023-01-27T08:27:56.498Z,101682.20
2023-01-27T08:30:25.260Z,101690.40
2023-01-27T08:32:54.106Z,101688.00
2023-01-27T08:35:22.096Z,101690.20
2023-01-27T08:37:50.310Z,101704.80
2023-01-27T08:40:18.771Z,101706.00
2023-01-27T08:42:46.859Z,101712.60
2023-01-27T08:45:14.886Z,101714.40
2023-01-27T08:47:43.042Z,101726.00
2023-01-27T08:50:12.223Z,101715.60
2023-01-27T08:52:40.622Z,101719.40
2023-01-27T08:55:08.652Z,101726.00
2023-01-27T08:57:37.384Z,101736.00
2023-01-27T09:00:08.682Z,101727.20
2023-01-27T09:02:36.615Z,101720.80
2023-01-27T09:05:05.317Z,101736.40
2023-01-27T09:07:34.300Z,101734.40
2023-01-27T09:10:18.140Z,101731.40
2023-01-27T09:12:46.380Z,101744.60
2023-01-27T09:15:15.936Z,101741.00
2023-01-27T09:17:43.927Z,101733.60
2023-01-27T09:20:12.988Z,101735.60
2023-01-27T09:22:42.047Z,101737.40
2023-01-27T09:25:17.802Z,101749.20
2023-01-27T09:27:46.171Z,101731.60
2023-01-27T09:30:16.710Z,101747.60
2023-01-27T09:32:44.754Z,101740.20
2023-01-27T09:35:13.362Z,101748.40
2023-01-27T09:37:49.819Z,101737.20
2023-01-27T09:40:29.607Z,101759.00
2023-01-27T09:43:17.858Z,101749.00
2023-01-27T09:46:10.601Z,101745.00
2023-01-27T09:49:14.985Z,101751.00
2023-01-27T09:52:05.779Z,101745.60
2023-01-27T09:55:21.182Z,101742.80
2023-01-27T09:58:17.375Z,101750.80
2023-01-27T10:01:18.540Z,101740.40
2023-01-27T10:04:32.467Z,101738.60
2023-01-27T10:07:51.749Z,101733.20
2023-01-27T10:10:53.379Z,101743.00
2023-01-27T10:13:42.311Z,101745.40
2023-01-27T10:17:00.972Z,101742.40
2023-01-27T10:20:19.175Z,101745.80
2023-01-27T10:23:06.525Z,101749.40
2023-01-27T10:26:27.625Z,101736.40
2023-01-27T10:29:24.360Z,101744.00
2023-01-27T10:32:30.494Z,101727.20
2023-01-27T10:35:18.781Z,101742.20
2023-01-27T10:38:37.623Z,101749.80
2023-01-27T10:41:41.149Z,101751.20
2023-01-27T10:44:43.362Z,101765.80
2023-01-27T10:47:36.916Z,101760.60
2023-01-27T10:50:18.069Z,101760.40
2023-01-27T10:52:59.131Z,101760.80
2023-01-27T10:55:38.613Z,101757.00
2023-01-27T10:58:20.412Z,101768.20
2023-01-27T11:04:25.896Z,101760.20
2023-01-27T11:06:56.078Z,101768.40
2023-01-27T11:09:39.134Z,101778.60
2023-01-27T11:12:14.471Z,101779.60
2023-01-27T11:14:49.353Z,101781.60
2023-01-27T11:17:50.637Z,101781.20
2023-01-27T11:20:39.867Z,101785.40
2023-01-27T11:23:07.673Z,101772.00
2023-01-27T11:26:12.825Z,101770.60
2023-01-27T11:29:24.233Z,101773.60
2023-01-27T11:32:43.077Z,101773.20
2023-01-27T11:35:15.543Z,101773.80
2023-01-27T11:37:49.065Z,101775.20
2023-01-27T11:40:33.766Z,101773.60
2023-01-27T11:43:03.963Z,101779.20
2023-01-27T11:45:36.156Z,101772.40
2023-01-27T11:48:11.512Z,101769.40
2023-01-27T11:50:43.346Z,101765.40
2023-01-27T11:53:21.578Z,101778.00
2023-01-27T11:56:01.070Z,101784.00
2023-01-27T11:58:53.522Z,101774.60
2023-01-27T12:01:37.459Z,101771.20
2023-01-27T12:04:16.794Z,101759.60
2023-01-27T12:06:55.253Z,101764.20
2023-01-27T12:09:39.845Z,101776.80
2023-01-27T12:12:13.761Z,101764.00
2023-01-27T12:14:55.611Z,101773.60
2023-01-27T12:17:32.640Z,101771.60
2023-01-27T12:20:18.311Z,101757.20
2023-01-27T12:22:49.974Z,101762.00
2023-01-27T12:25:29.718Z,101771.00
2023-01-27T12:28:20.967Z,101779.80
2023-01-27T12:30:49.308Z,101766.00
2023-01-27T12:33:31.373Z,101765.20
2023-01-27T12:36:14.360Z,101768.20
2023-01-27T12:39:01.756Z,101772.80
2023-01-27T12:41:33.371Z,101765.60
2023-01-27T12:44:22.631Z,101777.80
2023-01-27T12:47:04.936Z,101770.60
2023-01-27T12:49:38.170Z,101779.20
2023-01-27T12:52:09.338Z,101775.20
2023-01-27T12:54:37.458Z,101777.40
2023-01-27T12:57:19.106Z,101773.60
2023-01-27T12:59:57.637Z,101771.80
2023-01-27T13:02:32.480Z,101773.60
2023-01-27T13:05:11.120Z,101774.80
2023-01-27T13:07:53.623Z,101779.00
2023-01-27T13:10:27.905Z,101771.80
2023-01-27T13:12:59.411Z,101772.20
2023-01-27T13:15:31.672Z,101783.20
2023-01-27T13:18:13.083Z,101769.40
2023-01-27T13:20:47.184Z,101780.60
2023-01-27T13:23:26.760Z,101774.80
2023-01-27T13:26:04.059Z,101770.00
2023-01-27T13:29:04.997Z,101767.20
2023-01-27T13:32:10.107Z,101776.80
2023-01-27T13:35:06.965Z,101778.60
2023-01-27T13:37:46.319Z,101782.20
2023-01-27T13:40:22.544Z,101778.60
2023-01-27T13:43:20.148Z,101774.00
2023-01-27T13:46:24.525Z,101759.20
2023-01-27T13:48:59.028Z,101771.20
2023-01-27T13:51:31.538Z,101766.60
2023-01-27T13:54:03.697Z,101763.40
2023-01-27T13:56:58.678Z,101768.40
2023-01-27T13:59:35.348Z,101769.20
2023-01-27T14:02:53.778Z,101769.80
2023-01-27T14:06:09.766Z,101769.60
2023-01-27T14:08:54.891Z,101780.80
2023-01-27T14:11:46.569Z,101777.60
2023-01-27T14:14:57.465Z,101777.40
2023-01-27T14:17:48.895Z,101774.40
2023-01-27T14:20:49.160Z,101782.60
2023-01-27T14:24:01.094Z,101794.40
2023-01-27T14:26:41.186Z,101794.40
2023-01-27T14:29:30.644Z,101791.60
2023-01-27T14:32:27.456Z,101797.80
2023-01-27T14:35:34.617Z,101799.20
2023-01-27T14:38:31.302Z,101797.80
2023-01-27T14:41:37.045Z,101798.20
2023-01-27T14:45:04.652Z,101799.00
2023-01-27T14:47:45.313Z,101801.80
2023-01-27T14:50:53.217Z,101803.20
2023-01-27T14:53:46.030Z,101804.80
2023-01-27T14:56:28.961Z,101807.20
2023-01-27T14:59:47.502Z,101803.40
2023-01-27T15:02:27.518Z,101815.40
2023-01-27T15:05:27.193Z,101805.60
2023-01-27T15:08:33.015Z,101806.20
2023-01-27T15:11:39.389Z,101810.60
2023-01-27T15:15:03.252Z,101817.60
2023-01-27T15:18:01.706Z,101819.00
2023-01-27T15:21:21.997Z,101812.60
2023-01-27T15:24:28.316Z,101817.00
2023-01-27T15:26:57.576Z,101821.40
2023-01-27T15:29:30.789Z,101830.60
2023-01-27T15:32:28.355Z,101831.00
2023-01-27T15:35:34.840Z,101830.20
2023-01-27T15:38:05.849Z,101834.00
2023-01-27T15:40:56.632Z,101837.40
2023-01-27T15:43:25.639Z,101844.80
2023-01-27T15:46:17.615Z,101838.80
2023-01-27T15:48:47.675Z,101846.80
2023-01-27T15:51:21.479Z,101837.40
2023-01-27T15:53:55.707Z,101845.40
2023-01-27T15:56:48.232Z,101842.40
2023-01-27T15:59:30.556Z,101853.80
2023-01-27T16:02:20.400Z,101851.60
2023-01-27T16:05:17.907Z,101852.40
2023-01-27T16:07:53.672Z,101849.00
2023-01-27T16:10:25.430Z,101846.80
2023-01-27T16:13:26.995Z,101851.80
2023-01-27T16:16:30.904Z,101854.20
2023-01-27T16:19:16.545Z,101866.80
2023-01-27T16:21:52.810Z,101863.40
2023-01-27T16:24:52.057Z,101861.00
2023-01-27T16:27:46.448Z,101870.60
2023-01-27T16:30:32.067Z,101860.80
2023-01-27T16:33:20.512Z,101866.60
2023-01-27T16:36:05.527Z,101862.00
2023-01-27T16:38:39.724Z,101869.40
2023-01-27T16:41:39.102Z,101860.40
2023-01-27T16:44:22.480Z,101863.40
2023-01-27T16:47:05.034Z,101867.20
2023-01-27T16:49:42.097Z,101863.40
2023-01-27T16:52:24.679Z,101871.20
2023-01-27T16:55:00.381Z,101860.00
2023-01-27T16:57:34.302Z,101862.80
2023-01-27T17:00:23.249Z,101857.40
2023-01-27T17:02:53.721Z,101863.40
2023-01-27T17:05:23.235Z,101866.80
2023-01-27T17:08:24.562Z,101863.20
2023-01-27T17:11:04.594Z,101862.20
2023-01-27T17:13:44.275Z,101872.40
2023-01-27T17:16:36.767Z,101867.60
2023-01-27T17:19:11.936Z,101865.60
2023-01-27T17:22:01.763Z,101864.60
2023-01-27T17:24:38.299Z,101869.20
2023-01-27T17:27:28.693Z,101862.60
2023-01-27T17:30:24.202Z,101863.40
2023-01-27T17:32:57.497Z,101867.60
2023-01-27T17:35:31.711Z,101866.40
2023-01-27T17:38:26.143Z,101872.40
2023-01-27T17:40:55.589Z,101872.80
2023-01-27T17:43:32.166Z,101873.20
2023-01-27T17:46:05.947Z,101869.00
2023-01-27T17:48:38.400Z,101874.20
2023-01-27T17:51:07.671Z,101879.60
2023-01-27T17:53:41.956Z,101882.00
2023-01-27T17:56:21.096Z,101874.40
2023-01-27T17:58:55.674Z,101871.00
2023-01-27T18:01:24.240Z,101877.80
2023-01-27T18:03:57.091Z,101874.20
2023-01-27T18:06:29.790Z,101873.60
2023-01-27T18:09:06.185Z,101872.20
2023-01-27T18:11:36.637Z,101880.20
2023-01-27T18:14:18.510Z,101881.40
2023-01-27T18:16:58.194Z,101882.40
2023-01-27T18:19:26.803Z,101877.20
2023-01-27T18:22:04.569Z,101880.60
2023-01-27T18:24:34.216Z,101873.00
2023-01-27T18:27:02.119Z,101873.00
2023-01-27T18:29:38.984Z,101885.80
2023-01-27T18:32:13.094Z,101888.20
2023-01-27T18:34:56.927Z,101885.80
2023-01-27T18:37:39.644Z,101889.20
2023-01-27T18:40:48.157Z,101886.00
2023-01-27T18:43:16.397Z,101895.40
2023-01-27T18:45:45.296Z,101896.00
2023-01-27T18:48:16.389Z,101894.40
2023-01-27T18:50:52.703Z,101895.80
2023-01-27T18:53:22.567Z,101894.20
2023-01-27T18:55:52.714Z,101899.20
2023-01-27T18:58:21.473Z,101901.20
2023-01-27T19:00:55.538Z,101899.80
2023-01-27T19:03:28.483Z,101905.80
2023-01-27T19:05:56.976Z,101907.00
2023-01-27T19:08:25.472Z,101912.20
2023-01-27T19:10:54.308Z,101905.80
2023-01-27T19:13:23.747Z,101914.20
2023-01-27T19:15:55.059Z,101909.20
2023-01-27T19:18:35.453Z,101910.60
2023-01-27T19:21:04.626Z,101910.20
2023-01-27T19:23:32.873Z,101908.40
2023-01-27T19:26:05.273Z,101912.40
2023-01-27T19:28:37.493Z,101909.80
2023-01-27T19:31:07.550Z,101910.20
2023-01-27T19:33:37.471Z,101917.20
2023-01-27T19:36:25.280Z,101914.80
2023-01-27T19:39:02.013Z,101915.40
2023-01-27T19:41:30.411Z,101915.80
2023-01-27T19:43:58.310Z,101913.40
2023-01-27T19:46:29.772Z,101919.00
2023-01-27T19:48:57.628Z,101920.80
2023-01-27T19:51:27.121Z,101926.60
2023-01-27T19:53:55.430Z,101934.40
2023-01-27T19:56:29.483Z,101937.60
2023-01-27T19:59:02.536Z,101936.40
2023-01-27T20:01:35.045Z,101943.80
2023-01-27T20:04:02.944Z,101948.40
2023-01-27T20:06:32.816Z,101949.80
2023-01-27T20:09:03.572Z,101947.40
2023-01-27T20:11:31.485Z,101943.40
2023-01-27T20:14:01.908Z,101948.40
2023-01-27T20:16:30.946Z,101950.40
2023-01-27T20:19:02.394Z,101950.60
2023-01-27T20:21:33.302Z,101954.40
2023-01-27T20:24:06.459Z,101954.80
2023-01-27T20:26:36.571Z,101955.60
2023-01-27T20:29:04.629Z,101955.00
2023-01-27T20:31:39.492Z,101949.60
2023-01-27T20:34:12.109Z,101940.60
2023-01-27T20:36:40.447Z,101937.00
2023-01-27T20:39:08.493Z,101942.20
2023-01-27T20:41:40.063Z,101936.00
2023-01-27T20:44:12.462Z,101940.40
2023-01-27T20:46:40.506Z,101942.40
2023-01-27T20:49:08.444Z,101940.80
2023-01-27T20:51:39.486Z,101939.00
2023-01-27T20:54:08.909Z,101941.00
2023-01-27T20:56:37.598Z,101937.60
2023-01-27T20:59:08.083Z,101938.60
2023-01-27T21:01:36.577Z,101939.40
2023-01-27T21:04:06.994Z,101931.00
2023-01-27T21:06:35.563Z,101938.40
2023-01-27T21:09:04.208Z,101935.80
2023-01-27T21:11:32.241Z,101933.80
2023-01-27T21:14:00.241Z,101935.80
2023-01-27T21:16:28.553Z,101931.80
2023-01-27T21:18:56.525Z,101934.20
2023-01-27T21:21:31.059Z,101941.80
2023-01-27T21:24:02.579Z,101939.00
2023-01-27T21:26:32.885Z,101939.60
2023-01-27T21:29:00.787Z,101940.40
2023-01-27T21:31:31.507Z,101940.80
2023-01-27T21:34:00.496Z,101935.00
2023-01-27T21:36:29.569Z,101935.40
2023-01-27T21:38:57.960Z,101933.40
2023-01-27T21:41:47.079Z,101930.00
2023-01-27T21:44:44.473Z,101929.40
2023-01-27T21:47:20.251Z,101936.20
2023-01-27T21:50:01.954Z,101936.40
2023-01-27T21:52:44.232Z,101924.00
2023-01-27T21:55:22.258Z,101927.20
2023-01-27T21:57:54.871Z,101926.60
2023-01-27T22:00:27.239Z,101927.20
2023-01-27T22:02:58.026Z,101935.20
2023-01-27T22:05:28.535Z,101930.00
2023-01-27T22:07:56.415Z,101930.40
2023-01-27T22:10:28.202Z,101922.60
2023-01-27T22:13:06.077Z,101923.00
2023-01-27T22:15:34.114Z,101925.80
2023-01-27T22:18:02.070Z,101925.80
2023-01-27T22:20:29.902Z,101919.00
2023-01-27T22:22:57.802Z,101928.20
2023-01-27T22:25:28.863Z,101929.60
2023-01-27T22:27:59.251Z,101923.80
2023-01-27T22:30:27.234Z,101927.40
2023-01-27T22:32:56.157Z,101925.20
2023-01-27T22:35:24.415Z,101927.20
2023-01-27T22:37:53.253Z,101929.00
2023-01-27T22:40:21.189Z,101925.80
2023-01-27T22:42:52.061Z,101930.00
2023-01-27T22:45:23.090Z,101925.20
2023-01-27T22:47:52.422Z,101920.40
2023-01-27T22:50:20.358Z,101922.20
2023-01-27T22:52:48.284Z,101922.00
2023-01-27T22:55:16.537Z,101927.40
2023-01-27T22:57:45.441Z,101918.00
2023-01-27T23:00:13.911Z,101917.80
2023-01-27T23:02:41.919Z,101915.00
2023-01-27T23:05:10.100Z,101918.40
2023-01-27T23:07:39.434Z,101924.80
2023-01-27T23:10:08.855Z,101921.60
2023-01-27T23:12:36.761Z,101916.80
2023-01-27T23:15:06.472Z,101919.20
2023-01-27T23:17:34.493Z,101920.40
2023-01-27T23:20:02.526Z,101919.60
2023-01-27T23:22:30.456Z,101911.80
2023-01-27T23:24:58.711Z,101908.20
2023-01-27T23:27:28.685Z,101904.00
2023-01-27T23:29:56.550Z,101904.20
2023-01-27T23:32:24.579Z,101908.00
2023-01-27T23:34:52.485Z,101908.00
2023-01-27T23:37:20.419Z,101907.80
2023-01-27T23:39:49.792Z,101905.40
2023-01-27T23:42:18.612Z,101907.80
2023-01-27T23:44:47.309Z,101910.20
2023-01-27T23:47:16.635Z,101910.60
2023-01-27T23:49:44.532Z,101914.60
2023-01-27T23:52:12.384Z,101907.80
2023-01-27T23:54:40.253Z,101903.40
2023-01-27T23:57:08.131Z,101904.80
2023-01-27T23:59:35.944Z,101907.00
